createdAt,value
2023-01-19T00:00:12.484Z,22.15
2023-01-19T00:02:40.608Z,22.15
2023-01-19T00:05:09.183Z,22.14
2023-01-19T00:07:37.343Z,22.15
2023-01-19T00:10:06.391Z,22.13
2023-01-19T00:12:34.589Z,22.13
2023-01-19T00:15:05.087Z,22.13
2023-01-19T00:17:33.238Z,22.12
2023-01-19T00:20:01.344Z,22.12
2023-01-19T00:22:29.547Z,22.11
2023-01-19T00:24:57.669Z,22.11
2023-01-19T00:27:25.983Z,22.11
2023-01-19T00:29:54.091Z,22.09
2023-01-19T00:32:23.635Z,22.10
2023-01-19T00:34:52.400Z,22.09
2023-01-19T00:37:20.758Z,22.08
2023-01-19T00:39:48.826Z,22.09
2023-01-19T00:42:34.453Z,22.08
2023-01-19T00:45:02.635Z,22.08
2023-01-19T00:47:32.367Z,22.07
2023-01-19T00:50:00.458Z,22.07
2023-01-19T00:52:28.618Z,22.07
2023-01-19T00:54:56.715Z,22.05
2023-01-19T00:57:24.871Z,22.05
2023-01-19T00:59:53.025Z,22.05
2023-01-19T01:02:21.329Z,22.05
2023-01-19T01:04:54.823Z,22.04
2023-01-19T01:07:23.086Z,22.04
2023-01-19T01:09:51.589Z,22.05
2023-01-19T01:12:19.701Z,22.04
2023-01-19T01:14:47.846Z,22.04
2023-01-19T01:17:16.686Z,22.03
2023-01-19T01:19:44.858Z,22.01
2023-01-19T01:22:14.330Z,22.00
2023-01-19T01:24:42.580Z,22.00
2023-01-19T01:27:10.676Z,22.00
2023-01-19T01:29:41.161Z,21.99
2023-01-19T01:32:09.951Z,22.00
2023-01-19T01:34:38.022Z,22.00
2023-01-19T01:37:08.383Z,22.00
2023-01-19T01:39:37.895Z,22.00
2023-01-19T01:42:10.698Z,21.99
2023-01-19T01:44:50.030Z,21.99
2023-01-19T01:47:28.376Z,21.98
2023-01-19T01:49:59.551Z,21.98
2023-01-19T01:52:27.890Z,21.97
2023-01-19T01:54:57.479Z,21.97
2023-01-19T01:57:28.166Z,21.97
2023-01-19T01:59:56.586Z,21.98
2023-01-19T02:02:43.707Z,21.97
2023-01-19T02:05:12.542Z,21.96
2023-01-19T02:08:02.441Z,21.95
2023-01-19T02:10:49.442Z,21.96
2023-01-19T02:13:23.459Z,21.96
2023-01-19T02:15:52.828Z,21.95
2023-01-19T02:18:21.337Z,21.94
2023-01-19T02:20:54.907Z,21.94
2023-01-19T02:23:34.260Z,21.94
2023-01-19T02:26:02.389Z,21.94
2023-01-19T02:28:30.510Z,21.94
2023-01-19T02:30:58.771Z,21.94
2023-01-19T02:33:27.158Z,21.93
2023-01-19T02:35:55.319Z,21.93
2023-01-19T02:38:23.915Z,21.93
2023-01-19T02:40:53.476Z,21.92
2023-01-19T02:43:21.553Z,21.90
2023-01-19T02:45:50.129Z,21.87
2023-01-19T02:48:19.168Z,21.88
2023-01-19T02:50:49.926Z,21.88
2023-01-19T02:53:33.150Z,21.89
2023-01-19T02:56:06.899Z,21.88
2023-01-19T02:58:35.968Z,21.88
2023-01-19T03:01:09.015Z,21.87
2023-01-19T03:03:40.482Z,21.85
2023-01-19T03:06:11.112Z,21.86
2023-01-19T03:08:44.360Z,21.88
2023-01-19T03:11:14.106Z,21.89
2023-01-19T03:13:45.339Z,21.90
2023-01-19T03:16:17.015Z,21.87
2023-01-19T03:18:46.674Z,21.87
2023-01-19T03:21:14.842Z,21.85
2023-01-19T03:23:43.431Z,21.85
2023-01-19T03:26:14.383Z,21.84
2023-01-19T03:28:42.782Z,21.84
2023-01-19T03:31:13.480Z,21.83
2023-01-19T03:33:43.050Z,21.83
2023-01-19T03:36:13.738Z,21.83
2023-01-19T03:38:41.952Z,21.83
2023-01-19T03:41:12.867Z,21.82
2023-01-19T03:43:42.375Z,21.81
2023-01-19T03:46:11.055Z,21.83
2023-01-19T03:48:39.498Z,21.84
2023-01-19T03:51:08.930Z,21.87
2023-01-19T03:53:36.992Z,21.87
2023-01-19T03:56:06.104Z,21.88
2023-01-19T03:58:34.260Z,21.88
2023-01-19T04:01:04.303Z,21.86
2023-01-19T04:03:32.573Z,21.84
2023-01-19T04:06:00.667Z,21.84
2023-01-19T04:08:28.885Z,21.83
2023-01-19T04:10:58.704Z,21.82
2023-01-19T04:13:27.212Z,21.81
2023-01-19T04:15:55.337Z,21.81
2023-01-19T04:18:24.911Z,21.81
2023-01-19T04:20:52.980Z,21.81
2023-01-19T04:23:21.153Z,21.80
2023-01-19T04:25:49.297Z,21.80
2023-01-19T04:28:17.673Z,21.80
2023-01-19T04:30:45.810Z,21.80
2023-01-19T04:33:13.971Z,21.79
2023-01-19T04:35:43.612Z,21.78
2023-01-19T04:38:11.712Z,21.77
2023-01-19T04:40:39.871Z,21.77
2023-01-19T04:43:08.030Z,21.78
2023-01-19T04:45:36.716Z,21.78
2023-01-19T04:48:05.831Z,21.77
2023-01-19T04:50:34.009Z,21.77
2023-01-19T04:53:03.563Z,21.76
2023-01-19T04:55:31.814Z,21.76
2023-01-19T04:57:59.963Z,21.76
2023-01-19T05:00:28.011Z,21.77
2023-01-19T05:02:56.214Z,21.76
2023-01-19T05:05:24.473Z,21.76
2023-01-19T05:07:52.625Z,21.75
2023-01-19T05:10:22.159Z,21.75
2023-01-19T05:12:50.296Z,21.76
2023-01-19T05:15:18.536Z,21.77
2023-01-19T05:17:46.757Z,21.76
2023-01-19T05:20:16.338Z,21.76
2023-01-19T05:22:44.674Z,21.76
2023-01-19T05:25:12.834Z,21.77
2023-01-19T05:27:42.311Z,21.77
2023-01-19T05:30:11.996Z,21.78
2023-01-19T05:32:40.097Z,21.77
2023-01-19T05:35:09.302Z,21.78
2023-01-19T05:37:37.490Z,21.79
2023-01-19T05:40:07.002Z,21.78
2023-01-19T05:42:35.049Z,21.78
2023-01-19T05:45:04.810Z,21.78
2023-01-19T05:47:32.941Z,21.79
2023-01-19T05:50:01.075Z,21.80
2023-01-19T05:52:29.122Z,21.79
2023-01-19T05:54:57.237Z,21.79
2023-01-19T05:57:25.302Z,21.81
2023-01-19T05:59:53.484Z,21.81
2023-01-19T06:02:28.703Z,21.80
2023-01-19T06:04:57.285Z,21.81
2023-01-19T06:07:27.531Z,21.81
2023-01-19T06:09:56.999Z,21.83
2023-01-19T06:12:25.137Z,21.82
2023-01-19T06:14:53.453Z,21.83
2023-01-19T06:17:23.018Z,21.83
2023-01-19T06:19:51.188Z,21.82
2023-01-19T06:22:19.290Z,21.84
2023-01-19T06:24:47.500Z,21.84
2023-01-19T06:27:15.670Z,21.84
2023-01-19T06:29:43.765Z,21.84
2023-01-19T06:32:11.857Z,21.85
2023-01-19T06:34:43.859Z,21.85
2023-01-19T06:37:12.295Z,21.85
2023-01-19T06:39:41.197Z,21.86
2023-01-19T06:42:09.328Z,21.86
2023-01-19T06:44:37.482Z,21.87
2023-01-19T06:47:14.647Z,21.89
2023-01-19T06:49:45.653Z,21.94
2023-01-19T06:52:15.990Z,21.94
2023-01-19T06:54:45.256Z,21.94
2023-01-19T06:57:14.007Z,21.94
2023-01-19T06:59:42.184Z,21.94
2023-01-19T07:02:26.511Z,21.95
2023-01-19T07:04:57.546Z,21.95
2023-01-19T07:07:25.992Z,21.96
2023-01-19T07:09:54.362Z,21.95
2023-01-19T07:12:22.523Z,21.95
2023-01-19T07:14:50.681Z,21.97
2023-01-19T07:17:18.806Z,21.99
2023-01-19T07:19:47.465Z,21.99
2023-01-19T07:22:16.945Z,21.97
2023-01-19T07:24:45.102Z,21.98
2023-01-19T07:27:13.255Z,21.97
2023-01-19T07:29:41.489Z,21.97
2023-01-19T07:32:09.637Z,21.96
2023-01-19T07:34:37.958Z,21.96
2023-01-19T07:37:06.077Z,21.95
2023-01-19T07:39:36.734Z,21.96
2023-01-19T07:42:05.124Z,21.93
2023-01-19T07:44:33.338Z,21.94
2023-01-19T07:47:01.492Z,21.95
2023-01-19T07:49:29.586Z,21.95
2023-01-19T07:51:58.111Z,21.96
2023-01-19T07:54:26.298Z,21.96
2023-01-19T07:56:56.415Z,21.96
2023-01-19T07:59:24.889Z,21.97
2023-01-19T08:01:54.352Z,21.97
2023-01-19T08:04:22.662Z,21.97
2023-01-19T08:06:50.875Z,21.98
2023-01-19T08:09:19.180Z,21.99
2023-01-19T08:11:47.233Z,21.99
2023-01-19T08:14:16.763Z,22.02
2023-01-19T08:16:44.854Z,22.02
2023-01-19T08:19:12.952Z,22.02
2023-01-19T08:21:41.192Z,22.02
2023-01-19T08:24:12.687Z,22.02
2023-01-19T08:26:40.918Z,22.02
2023-01-19T08:29:09.103Z,22.01
2023-01-19T08:31:39.652Z,22.02
2023-01-19T08:34:08.284Z,22.02
2023-01-19T08:36:36.539Z,22.04
2023-01-19T08:39:05.276Z,22.04
2023-01-19T08:41:33.577Z,22.04
2023-01-19T08:44:01.745Z,22.05
2023-01-19T08:46:29.818Z,22.04
2023-01-19T08:48:59.403Z,22.04
2023-01-19T08:51:27.549Z,22.05
2023-01-19T08:53:55.646Z,22.05
2023-01-19T08:56:23.768Z,22.06
2023-01-19T08:59:07.817Z,22.06
2023-01-19T09:01:38.185Z,22.06
2023-01-19T09:04:07.910Z,22.07
2023-01-19T09:06:36.072Z,22.07
2023-01-19T09:09:04.278Z,22.07
2023-01-19T09:11:33.229Z,22.08
2023-01-19T09:14:01.447Z,22.10
2023-01-19T09:16:29.797Z,22.13
2023-01-19T09:18:58.579Z,22.14
2023-01-19T09:21:28.942Z,22.15
2023-01-19T09:23:57.835Z,22.16
2023-01-19T09:26:26.311Z,22.16
2023-01-19T09:28:54.475Z,22.15
2023-01-19T09:31:22.687Z,22.15
2023-01-19T09:33:51.135Z,22.17
2023-01-19T09:36:19.299Z,22.19
2023-01-19T09:38:48.787Z,22.19
2023-01-19T09:41:20.536Z,22.23
2023-01-19T09:43:51.727Z,22.25
2023-01-19T09:46:21.732Z,22.27
2023-01-19T09:48:51.327Z,22.28
2023-01-19T09:51:21.121Z,22.30
2023-01-19T09:54:04.711Z,22.31
2023-01-19T09:56:32.976Z,22.33
2023-01-19T09:59:01.174Z,22.34
2023-01-19T10:01:38.479Z,22.34
2023-01-19T10:04:27.096Z,22.34
2023-01-19T10:06:58.630Z,22.35
2023-01-19T10:09:30.511Z,22.35
2023-01-19T10:11:59.909Z,22.34
2023-01-19T10:14:30.743Z,22.34
2023-01-19T10:17:02.183Z,22.33
2023-01-19T10:19:32.829Z,22.34
2023-01-19T10:22:03.850Z,22.33
2023-01-19T10:24:37.095Z,22.33
2023-01-19T10:27:05.283Z,22.34
2023-01-19T10:29:36.381Z,22.35
2023-01-19T10:32:06.356Z,22.34
2023-01-19T10:34:34.563Z,22.36
2023-01-19T10:37:05.566Z,22.35
2023-01-19T10:39:38.614Z,22.38
2023-01-19T10:42:07.095Z,22.38
2023-01-19T10:44:36.794Z,22.38
2023-01-19T10:47:05.379Z,22.38
2023-01-19T10:49:37.963Z,22.39
2023-01-19T10:52:07.167Z,22.38
2023-01-19T10:54:38.465Z,22.38
2023-01-19T10:57:09.317Z,22.38
2023-01-19T10:59:38.420Z,22.38
2023-01-19T11:02:20.390Z,22.38
2023-01-19T11:04:50.174Z,22.37
2023-01-19T11:07:21.100Z,22.38
2023-01-19T11:09:50.964Z,22.38
2023-01-19T11:12:20.245Z,22.38
2023-01-19T11:14:48.505Z,22.36
2023-01-19T11:17:21.507Z,22.31
2023-01-19T11:19:57.595Z,22.31
2023-01-19T11:22:27.874Z,22.30
2023-01-19T11:25:00.562Z,22.28
2023-01-19T11:27:28.708Z,22.28
2023-01-19T11:30:02.232Z,22.28
2023-01-19T11:32:30.371Z,22.30
2023-01-19T11:34:58.502Z,22.32
2023-01-19T11:37:31.269Z,22.33
2023-01-19T11:40:02.670Z,22.35
2023-01-19T11:42:32.024Z,22.34
2023-01-19T11:45:03.143Z,22.35
2023-01-19T11:47:33.638Z,22.35
2023-01-19T11:50:04.027Z,22.35
2023-01-19T11:52:35.197Z,22.35
2023-01-19T11:55:06.912Z,22.36
2023-01-19T11:57:35.174Z,22.38
2023-01-19T12:00:24.013Z,22.39
2023-01-19T12:02:52.421Z,22.41
2023-01-19T12:05:20.777Z,22.42
2023-01-19T12:07:49.141Z,22.44
2023-01-19T12:10:24.736Z,22.45
2023-01-19T12:12:52.994Z,22.47
2023-01-19T12:15:31.562Z,22.48
2023-01-19T12:18:01.271Z,22.49
2023-01-19T12:20:31.959Z,22.50
2023-01-19T12:23:07.795Z,22.52
2023-01-19T12:25:46.012Z,22.51
2023-01-19T12:28:15.203Z,22.50
2023-01-19T12:30:49.828Z,22.48
2023-01-19T12:33:25.315Z,22.47
2023-01-19T12:35:57.290Z,22.46
2023-01-19T12:38:55.415Z,22.45
2023-01-19T12:41:27.429Z,22.44
2023-01-19T12:44:21.259Z,22.44
2023-01-19T12:46:50.309Z,22.42
2023-01-19T12:49:32.801Z,22.43
2023-01-19T12:52:35.141Z,22.42
2023-01-19T12:55:07.518Z,22.41
2023-01-19T12:57:38.257Z,22.41
2023-01-19T13:00:08.308Z,22.40
2023-01-19T13:02:46.564Z,22.40
2023-01-19T13:05:16.911Z,22.40
2023-01-19T13:08:23.005Z,22.41
2023-01-19T13:10:55.703Z,22.40
2023-01-19T13:13:25.582Z,22.39
2023-01-19T13:15:55.872Z,22.39
2023-01-19T13:18:24.733Z,22.39
2023-01-19T13:20:54.354Z,22.39
2023-01-19T13:23:24.931Z,22.38
2023-01-19T13:26:04.112Z,22.39
2023-01-19T13:28:38.829Z,22.39
2023-01-19T13:31:07.233Z,22.39
2023-01-19T13:33:41.095Z,22.39
2023-01-19T13:36:18.203Z,22.39
2023-01-19T13:38:46.399Z,22.38
2023-01-19T13:41:16.227Z,22.37
2023-01-19T13:43:45.737Z,22.37
2023-01-19T13:46:13.945Z,22.37
2023-01-19T13:48:42.079Z,22.36
2023-01-19T13:51:18.440Z,22.38
2023-01-19T13:53:54.934Z,22.37
2023-01-19T13:56:23.879Z,22.36
2023-01-19T13:59:10.376Z,22.35
2023-01-19T14:01:40.040Z,22.36
2023-01-19T14:04:16.957Z,22.34
2023-01-19T14:06:48.240Z,22.35
2023-01-19T14:09:18.724Z,22.35
2023-01-19T14:11:47.688Z,22.35
2023-01-19T14:14:29.861Z,22.35
2023-01-19T14:16:57.947Z,22.34
2023-01-19T14:19:26.143Z,22.34
2023-01-19T14:22:01.859Z,22.34
2023-01-19T14:24:33.055Z,22.33
2023-01-19T14:27:14.331Z,22.30
2023-01-19T14:29:45.624Z,22.25
2023-01-19T14:32:15.758Z,22.24
2023-01-19T14:34:44.904Z,22.27
2023-01-19T14:37:24.519Z,22.28
2023-01-19T14:39:53.601Z,22.30
2023-01-19T14:42:27.199Z,22.30
2023-01-19T14:44:57.615Z,22.31
2023-01-19T14:47:34.060Z,22.32
2023-01-19T14:50:07.543Z,22.32
2023-01-19T14:52:37.762Z,22.32
2023-01-19T14:55:08.338Z,22.32
2023-01-19T14:57:37.249Z,22.32
2023-01-19T15:00:17.443Z,22.32
2023-01-19T15:02:45.964Z,22.32
2023-01-19T15:05:14.360Z,22.32
2023-01-19T15:07:43.710Z,22.32
2023-01-19T15:10:14.511Z,22.32
2023-01-19T15:12:42.766Z,22.32
2023-01-19T15:15:16.841Z,22.33
2023-01-19T15:17:44.969Z,22.33
2023-01-19T15:20:16.524Z,22.33
2023-01-19T15:22:45.060Z,22.33
2023-01-19T15:25:16.817Z,22.33
2023-01-19T15:27:45.224Z,22.33
2023-01-19T15:30:17.368Z,22.34
2023-01-19T15:32:45.477Z,22.34
2023-01-19T15:35:15.615Z,22.33
2023-01-19T15:37:43.686Z,22.34
2023-01-19T15:40:12.634Z,22.36
2023-01-19T15:42:41.042Z,22.36
2023-01-19T15:45:37.756Z,22.38
2023-01-19T15:48:07.153Z,22.39
2023-01-19T15:50:35.672Z,22.38
2023-01-19T15:53:19.715Z,22.38
2023-01-19T15:55:50.526Z,22.37
2023-01-19T15:58:20.605Z,22.37
2023-01-19T16:00:55.736Z,22.36
2023-01-19T16:03:24.167Z,22.37
2023-01-19T16:05:52.253Z,22.36
2023-01-19T16:08:22.111Z,22.36
2023-01-19T16:10:50.321Z,22.37
2023-01-19T16:13:18.394Z,22.37
2023-01-19T16:15:46.587Z,22.38
2023-01-19T16:18:16.046Z,22.38
2023-01-19T16:20:44.188Z,22.39
2023-01-19T16:23:15.862Z,22.39
2023-01-19T16:25:44.341Z,22.39
2023-01-19T16:28:12.505Z,22.40
2023-01-19T16:30:40.807Z,22.40
2023-01-19T16:33:11.673Z,22.40
2023-01-19T16:35:41.303Z,22.40
2023-01-19T16:38:09.808Z,22.41
2023-01-19T16:40:38.185Z,22.40
2023-01-19T16:43:06.314Z,22.40
2023-01-19T16:45:34.452Z,22.37
2023-01-19T16:48:02.725Z,22.37
2023-01-19T16:50:30.811Z,22.37
2023-01-19T16:53:00.385Z,22.37
2023-01-19T16:55:28.448Z,22.38
2023-01-19T16:57:56.909Z,22.39
2023-01-19T17:00:25.441Z,22.39
2023-01-19T17:02:53.805Z,22.39
2023-01-19T17:05:22.409Z,22.40
2023-01-19T17:07:50.566Z,22.41
2023-01-19T17:10:20.264Z,22.42
2023-01-19T17:12:48.400Z,22.44
2023-01-19T17:15:16.802Z,22.44
2023-01-19T17:17:45.034Z,22.46
2023-01-19T17:20:14.056Z,22.47
2023-01-19T17:22:42.422Z,22.48
2023-01-19T17:25:10.650Z,22.49
2023-01-19T17:27:40.228Z,22.50
2023-01-19T17:30:09.563Z,22.51
2023-01-19T17:32:37.947Z,22.52
2023-01-19T17:35:06.681Z,22.52
2023-01-19T17:37:34.836Z,22.52
2023-01-19T17:40:02.991Z,22.52
2023-01-19T17:42:31.136Z,22.54
2023-01-19T17:45:00.657Z,22.56
2023-01-19T17:47:28.748Z,22.58
2023-01-19T17:49:56.909Z,22.60
2023-01-19T17:52:25.029Z,22.59
2023-01-19T17:54:53.151Z,22.60
2023-01-19T17:57:21.375Z,22.59
2023-01-19T17:59:49.531Z,22.59
2023-01-19T18:02:19.178Z,22.59
2023-01-19T18:04:47.321Z,22.60
2023-01-19T18:07:15.364Z,22.60
2023-01-19T18:09:43.512Z,22.60
2023-01-19T18:12:11.591Z,22.60
2023-01-19T18:14:40.379Z,22.61
2023-01-19T18:17:08.621Z,22.61
2023-01-19T18:19:38.101Z,22.63
2023-01-19T18:22:06.287Z,22.63
2023-01-19T18:24:34.465Z,22.64
2023-01-19T18:27:02.758Z,22.64
2023-01-19T18:29:31.027Z,22.64
2023-01-19T18:31:59.224Z,22.65
2023-01-19T18:34:27.356Z,22.65
2023-01-19T18:36:56.898Z,22.66
2023-01-19T18:39:25.003Z,22.69
2023-01-19T18:41:53.200Z,22.69
2023-01-19T18:44:22.232Z,22.70
2023-01-19T18:46:50.399Z,22.70
2023-01-19T18:49:18.498Z,22.70
2023-01-19T18:51:46.642Z,22.70
2023-01-19T18:54:17.490Z,22.70
2023-01-19T18:56:45.739Z,22.71
2023-01-19T18:59:13.815Z,22.71
2023-01-19T19:01:42.017Z,22.71
2023-01-19T19:04:10.147Z,22.71
2023-01-19T19:06:38.280Z,22.71
2023-01-19T19:09:06.610Z,22.70
2023-01-19T19:11:36.540Z,22.70
2023-01-19T19:14:04.807Z,22.71
2023-01-19T19:16:36.197Z,22.70
2023-01-19T19:19:05.103Z,22.70
2023-01-19T19:21:33.196Z,22.71
2023-01-19T19:24:01.349Z,22.70
2023-01-19T19:26:29.416Z,22.71
2023-01-19T19:28:58.942Z,22.70
2023-01-19T19:31:27.716Z,22.70
2023-01-19T19:33:56.352Z,22.70
2023-01-19T19:36:24.492Z,22.69
2023-01-19T19:38:52.546Z,22.68
2023-01-19T19:41:21.930Z,22.68
2023-01-19T19:43:50.027Z,22.68
2023-01-19T19:46:21.030Z,22.66
2023-01-19T19:48:49.504Z,22.67
2023-01-19T19:51:19.437Z,22.65
2023-01-19T19:53:50.935Z,22.65
2023-01-19T19:56:21.206Z,22.65
2023-01-19T19:58:49.560Z,22.67
2023-01-19T20:01:20.388Z,22.66
2023-01-19T20:03:48.726Z,22.67
2023-01-19T20:06:17.977Z,22.65
2023-01-19T20:08:46.120Z,22.66
2023-01-19T20:11:15.058Z,22.65
2023-01-19T20:13:43.728Z,22.65
2023-01-19T20:16:13.944Z,22.66
2023-01-19T20:18:44.018Z,22.66
2023-01-19T20:21:12.959Z,22.67
2023-01-19T20:23:41.234Z,22.68
2023-01-19T20:26:09.731Z,22.68
2023-01-19T20:28:38.090Z,22.69
2023-01-19T20:31:10.691Z,22.68
2023-01-19T20:33:38.881Z,22.69
2023-01-19T20:36:08.870Z,22.68
2023-01-19T20:38:37.082Z,22.67
2023-01-19T20:41:05.233Z,22.67
2023-01-19T20:43:33.433Z,22.67
2023-01-19T20:46:01.631Z,22.66
2023-01-19T20:48:30.259Z,22.67
2023-01-19T20:51:01.787Z,22.66
2023-01-19T20:53:31.327Z,22.65
2023-01-19T20:55:59.561Z,22.65
2023-01-19T20:58:27.639Z,22.66
2023-01-19T21:00:55.822Z,22.67
2023-01-19T21:03:23.918Z,22.66
2023-01-19T21:05:52.054Z,22.67
2023-01-19T21:08:20.158Z,22.66
2023-01-19T21:10:49.682Z,22.65
2023-01-19T21:13:17.732Z,22.65
2023-01-19T21:15:45.930Z,22.65
2023-01-19T21:18:14.007Z,22.65
2023-01-19T21:20:42.242Z,22.64
2023-01-19T21:23:10.400Z,22.64
2023-01-19T21:25:38.680Z,22.64
2023-01-19T21:28:08.542Z,22.62
2023-01-19T21:30:37.534Z,22.61
2023-01-19T21:33:07.187Z,22.62
2023-01-19T21:35:35.260Z,22.61
2023-01-19T21:38:03.367Z,22.59
2023-01-19T21:40:31.470Z,22.59
2023-01-19T21:42:59.668Z,22.57
2023-01-19T21:45:29.231Z,22.55
2023-01-19T21:47:57.455Z,22.56
2023-01-19T21:50:25.516Z,22.56
2023-01-19T21:52:53.681Z,22.54
2023-01-19T21:55:21.851Z,22.54
2023-01-19T21:57:49.997Z,22.54
2023-01-19T22:00:19.141Z,22.51
2023-01-19T22:03:02.790Z,22.51
2023-01-19T22:05:31.800Z,22.51
2023-01-19T22:07:59.860Z,22.50
2023-01-19T22:10:28.003Z,22.49
2023-01-19T22:12:56.022Z,22.48
2023-01-19T22:15:24.182Z,22.48
2023-01-19T22:17:53.659Z,22.47
2023-01-19T22:20:21.831Z,22.45
2023-01-19T22:22:49.914Z,22.47
2023-01-19T22:25:22.032Z,22.46
2023-01-19T22:27:50.195Z,22.45
2023-01-19T22:30:19.401Z,22.44
2023-01-19T22:32:47.585Z,22.44
2023-01-19T22:35:17.325Z,22.42
2023-01-19T22:37:45.511Z,22.42
2023-01-19T22:40:14.175Z,22.42
2023-01-19T22:42:45.592Z,22.41
2023-01-19T22:45:13.986Z,22.40
2023-01-19T22:47:42.168Z,22.39
2023-01-19T22:50:11.254Z,22.40
2023-01-19T22:52:40.752Z,22.39
2023-01-19T22:55:09.546Z,22.39
2023-01-19T22:57:38.380Z,22.38
2023-01-19T23:00:08.696Z,22.37
2023-01-19T23:02:36.935Z,22.37
2023-01-19T23:05:05.527Z,22.36
2023-01-19T23:07:33.675Z,22.36
2023-01-19T23:10:03.146Z,22.34
2023-01-19T23:12:31.360Z,22.33
2023-01-19T23:14:59.698Z,22.34
2023-01-19T23:17:27.872Z,22.33
2023-01-19T23:19:56.128Z,22.31
2023-01-19T23:22:24.268Z,22.31
2023-01-19T23:24:52.451Z,22.28
2023-01-19T23:27:21.967Z,22.29
2023-01-19T23:29:50.044Z,22.29
2023-01-19T23:32:18.186Z,22.28
2023-01-19T23:34:46.267Z,22.28
2023-01-19T23:37:14.429Z,22.28
2023-01-19T23:39:42.699Z,22.27
2023-01-19T23:42:10.948Z,22.26
2023-01-19T23:44:40.382Z,22.26
2023-01-19T23:47:08.596Z,22.25
2023-01-19T23:49:36.665Z,22.25
2023-01-19T23:52:05.802Z,22.24
2023-01-19T23:54:34.012Z,22.24
2023-01-19T23:57:02.131Z,22.24
2023-01-19T23:59:30.276Z,22.23
